KOXD/OXD METAR and TAF weather

Enter ICAO airport designator
Station Type Date Time Source
KOXD METAR 2020/08/12 17:59 UTC NOAA

KOXD 121759Z AUTO 07003KT 10SM OVC027 28/24 A3009 RMK AO2


Station Type Date Time Source
KOXD Decoded METAR 2020/08/12 17:59 UTC NOAA

Station name not available
Aug 12, 2020 - 01:59 PM EDT / 2020.08.12 1759 UTC
Wind: from the ENE (070 degrees) at 3 MPH (3 KT):0
Visibility: 10 mile(s):0
Sky conditions: overcast
Temperature: 82 F (28 C)
Dew Point: 75 F (24 C)
Relative Humidity: 78%
Pressure (altimeter): 30.09 in. Hg (1018 hPa)
ob: KOXD 121759Z AUTO 07003KT 10SM OVC027 28/24 A3009 RMK AO2
cycle: 18

Station Type Date Time Source
KOXD TAF UTC NOAA

Error!

Example: see airport list